Carole L. Brent — WDD5964 — position and weather

sailwx.info

Track history (hours):
 
Tides and Currents Weather Stations Pressure Air Temp Water Temp Dewpoint Dewpoint Depression Visibility Wind Speed Wind Dir Waves Ship Positions

Carole L. Brent

Owner: Kirby Inland Marine, LP, Houston, TX. More information available from US FCC via Universal Licensing System and Coast Guard Vessel Documentation Center.

Last reported at 2018-Jan-23 13:29 UTC. Time now 2018-Jan-23 13:53 UTC.
Position N 38°55' W 090°15'.

Length 210 m; draft 2.7 m.

Type: . MMSI: 367166440.

Date/timePositionNaut miles runAvg speedWind from/ knotsBaromVisibWave heightAir tempDewpointWater temp
2018-Jan-23 13:29N 38°55' W 090°15'0 0.0
2018-Jan-23 13:00N 38°55' W 090°15'0 0.0
2018-Jan-23 12:25N 38°55' W 090°15'0 0.0
2018-Jan-23 12:00N 38°55' W 090°15'0 0.0
2018-Jan-23 11:30N 38°55' W 090°15'0 0.0
2018-Jan-23 11:00N 38°55' W 090°15'0 0.0
2018-Jan-23 10:28N 38°55' W 090°15'0 0.0
2018-Jan-23 10:00N 38°55' W 090°15'1 1.0
2018-Jan-23 09:30N 38°55' W 090°15'4 7.3
2018-Jan-23 09:00N 38°56' W 090°20'4 7.5
2018-Jan-23 08:30N 38°58' W 090°24'4 7.4
2018-Jan-23 08:00N 38°58' W 090°29'3 5.9
2018-Jan-23 07:30N 38°58' W 090°33'3 6.7
2018-Jan-23 07:00N 39°01' W 090°35'3 5.7
2018-Jan-23 06:30N 39°04' W 090°35'3 6.6
2018-Jan-23 06:00N 39°07' W 090°36'4 7.1
2018-Jan-23 05:30N 39°10' W 090°37'  
Track history (hours):
 
Tides and Currents Weather Stations Pressure Air Temp Water Temp Dewpoint Dewpoint Depression Visibility Wind Speed Wind Dir Waves Ship Positions

Carole L. Brent

Owner: Kirby Inland Marine, LP, Houston, TX. More information available from US FCC via Universal Licensing System and Coast Guard Vessel Documentation Center.

Last reported at 2018-Jan-23 13:29 UTC. Time now 2018-Jan-23 13:53 UTC.
Position N 38°55' W 090°15'.

Length 210 m; draft 2.7 m.

Type: . MMSI: 367166440.

Date/timePositionNaut miles runAvg speedWind from/ knotsBaromVisibWave heightAir tempDewpointWater temp
2018-Jan-23 13:29N 38°55' W 090°15'0 0.0
2018-Jan-23 13:00N 38°55' W 090°15'0 0.0
2018-Jan-23 12:25N 38°55' W 090°15'0 0.0
2018-Jan-23 12:00N 38°55' W 090°15'0 0.0
2018-Jan-23 11:30N 38°55' W 090°15'0 0.0
2018-Jan-23 11:00N 38°55' W 090°15'0 0.0
2018-Jan-23 10:28N 38°55' W 090°15'0 0.0
2018-Jan-23 10:00N 38°55' W 090°15'1 1.0
2018-Jan-23 09:30N 38°55' W 090°15'4 7.3
2018-Jan-23 09:00N 38°56' W 090°20'4 7.5
2018-Jan-23 08:30N 38°58' W 090°24'4 7.4
2018-Jan-23 08:00N 38°58' W 090°29'3 5.9
2018-Jan-23 07:30N 38°58' W 090°33'3 6.7
2018-Jan-23 07:00N 39°01' W 090°35'3 5.7
2018-Jan-23 06:30N 39°04' W 090°35'3 6.6
2018-Jan-23 06:00N 39°07' W 090°36'4 7.1
2018-Jan-23 05:30N 39°10' W 090°37'  

Dump ship's entire track history